Time;durP1;ratioP1;P1;durP2;ratioP2;P2;SDS_P1;SDS_P2;PMS_P1;PMS_P2;Temp;Humidity;BMP_temperature;BMP_pressure;BME280_temperature;BME280_humidity;BME280_pressure;Samples;Min_cycle;Max_cycle;Signal;HPM_P1;HPM_P2
2021/05/20 00:00:02;;;;;;;2.33;1.50;;;15.20;54.80;;;;;;5089145;28;20032;-80
2021/05/20 00:02:28;;;;;;;3.03;1.45;;;15.20;54.90;;;;;;5071156;28;20074;-79
2021/05/20 00:04:54;;;;;;;1.45;1.02;;;15.20;54.90;;;;;;5088804;28;20044;-79
2021/05/20 00:07:20;;;;;;;1.52;1.40;;;15.20;55.00;;;;;;5070549;28;20417;-79
2021/05/20 00:09:46;;;;;;;1.75;1.30;;;15.10;54.90;;;;;;5070509;28;20059;-79
2021/05/20 00:12:12;;;;;;;1.67;1.23;;;15.10;55.00;;;;;;5070702;28;20506;-79
2021/05/20 00:14:39;;;;;;;2.63;1.63;;;15.10;55.00;;;;;;5070106;28;20054;-79
2021/05/20 00:17:05;;;;;;;3.13;1.40;;;15.00;54.90;;;;;;5088448;28;20036;-79
2021/05/20 00:19:31;;;;;;;2.63;1.38;;;15.00;54.90;;;;;;5070258;28;20039;-79
2021/05/20 00:21:57;;;;;;;5.65;1.50;;;14.90;54.80;;;;;;5053524;28;20036;-79
2021/05/20 00:24:23;;;;;;;6.45;1.73;;;14.90;54.90;;;;;;5088049;28;20032;-77
2021/05/20 00:26:49;;;;;;;4.50;1.83;;;14.90;55.00;;;;;;5070231;28;20289;-79
2021/05/20 00:29:15;;;;;;;2.55;1.30;;;14.80;54.90;;;;;;5088147;28;20020;-77
2021/05/20 00:31:41;;;;;;;2.10;1.65;;;14.80;54.90;;;;;;5070344;28;20032;-79
2021/05/20 00:34:07;;;;;;;1.95;1.50;;;14.80;55.00;;;;;;5070390;28;20059;-78
2021/05/20 00:36:33;;;;;;;2.28;1.75;;;14.70;54.90;;;;;;5070238;28;20035;-79
2021/05/20 00:38:59;;;;;;;2.38;1.27;;;14.70;55.00;;;;;;5053149;28;20028;-79
2021/05/20 00:41:25;;;;;;;2.03;1.20;;;14.60;54.80;;;;;;5053164;28;20113;-79
2021/05/20 00:43:51;;;;;;;1.45;1.13;;;14.60;54.90;;;;;;5053136;28;20039;-79
2021/05/20 00:46:18;;;;;;;3.60;1.50;;;14.60;55.00;;;;;;5070503;28;20040;-79
2021/05/20 00:48:44;;;;;;;3.17;1.50;;;14.50;54.90;;;;;;5089942;28;20035;-79
2021/05/20 00:51:10;;;;;;;1.52;1.38;;;14.50;55.00;;;;;;5073007;28;20042;-80
2021/05/20 00:53:36;;;;;;;1.25;0.95;;;14.50;55.00;;;;;;5089736;28;20474;-82
2021/05/20 00:56:03;;;;;;;2.53;1.35;;;14.40;54.90;;;;;;5089672;28;20031;-79
2021/05/20 00:58:29;;;;;;;1.67;1.35;;;14.40;55.00;;;;;;5107987;28;20050;-79
2021/05/20 01:00:56;;;;;;;1.88;1.40;;;14.40;55.00;;;;;;5090156;28;20078;-80
2021/05/20 01:03:23;;;;;;;2.25;1.40;;;14.40;55.10;;;;;;5108349;28;20028;-80
2021/05/20 01:05:53;;;;;;;2.13;1.42;;;14.40;55.10;;;;;;5089849;28;20063;-80
2021/05/20 01:08:22;;;;;;;1.90;1.40;;;14.30;55.00;;;;;;5107929;28;20119;-80
2021/05/20 01:10:49;;;;;;;2.40;1.50;;;14.30;55.10;;;;;;5089830;28;20089;-79
2021/05/20 01:13:15;;;;;;;1.42;1.30;;;14.30;55.10;;;;;;5107508;28;20035;-79
2021/05/20 01:15:41;;;;;;;2.30;1.40;;;14.30;55.10;;;;;;5089547;28;20390;-80
2021/05/20 01:18:07;;;;;;;1.77;1.42;;;14.20;55.00;;;;;;5089654;28;20192;-80
2021/05/20 01:20:39;;;;;;;1.55;1.42;;;14.20;55.10;;;;;;5073387;28;20382;-78
2021/05/20 01:23:10;;;;;;;3.13;2.00;;;14.10;55.00;;;;;;5073040;28;20027;-79
2021/05/20 01:25:37;;;;;;;1.40;1.27;;;14.10;55.10;;;;;;5073176;28;20118;-79
2021/05/20 01:28:06;;;;;;;1.55;1.33;;;14.10;55.10;;;;;;5107918;28;20131;-79
2021/05/20 01:30:34;;;;;;;4.35;1.60;;;14.10;55.20;;;;;;5089433;28;20036;-79
2021/05/20 01:33:00;;;;;;;2.13;1.58;;;14.00;55.00;;;;;;5109162;28;20028;-79
2021/05/20 01:35:26;;;;;;;3.40;1.40;;;14.00;55.10;;;;;;5090742;28;20036;-79
2021/05/20 01:40:53;;;;;;;1.42;1.25;;;14.00;55.30;;;;;;5088459;28;20028;-79
2021/05/20 01:43:19;;;;;;;3.83;1.52;;;14.00;55.30;;;;;;5070595;28;20051;-79
2021/05/20 01:45:57;;;;;;;2.00;1.40;;;13.90;55.10;;;;;;5055672;28;20044;-78
2021/05/20 01:48:38;;;;;;;1.73;1.27;;;13.90;55.10;;;;;;5089993;28;20048;-78
2021/05/20 01:51:17;;;;;;;3.90;1.80;;;13.90;55.20;;;;;;5090226;28;20028;-78
2021/05/20 01:53:45;;;;;;;2.60;1.50;;;13.90;55.30;;;;;;5076208;28;20541;-78
2021/05/20 01:56:15;;;;;;;2.25;1.30;;;13.80;55.00;;;;;;5076766;28;20119;-78
2021/05/20 01:58:41;;;;;;;1.55;1.42;;;13.80;55.10;;;;;;5076630;28;20036;-78
2021/05/20 02:01:07;;;;;;;1.65;1.50;;;13.80;55.20;;;;;;5111804;28;20024;-78
2021/05/20 02:03:33;;;;;;;3.08;1.50;;;13.80;55.20;;;;;;5093473;28;20050;-79
2021/05/20 02:06:03;;;;;;;1.98;1.20;;;13.80;55.20;;;;;;5076497;28;20508;-79
2021/05/20 02:08:33;;;;;;;1.95;1.20;;;13.80;55.30;;;;;;5077013;28;20118;-79
2021/05/20 02:10:59;;;;;;;5.75;2.00;;;13.70;55.10;;;;;;5080574;28;20536;-78
2021/05/20 02:13:26;;;;;;;1.90;1.50;;;13.70;55.10;;;;;;5080587;28;20032;-79
2021/05/20 02:15:52;;;;;;;1.70;1.40;;;13.70;55.20;;;;;;5080639;28;20032;-79
2021/05/20 02:18:18;;;;;;;2.97;1.45;;;13.70;55.20;;;;;;5080554;28;20027;-79
2021/05/20 02:20:45;;;;;;;2.22;1.30;;;13.70;55.30;;;;;;5096987;28;20091;-78
2021/05/20 02:23:12;;;;;;;2.00;1.42;;;13.60;55.10;;;;;;5097152;28;20517;-79
2021/05/20 02:25:38;;;;;;;3.20;1.60;;;13.70;55.40;;;;;;5097047;28;20042;-79
2021/05/20 02:28:04;;;;;;;1.23;1.13;;;13.60;55.20;;;;;;5115333;28;20027;-79
2021/05/20 02:30:31;;;;;;;2.22;1.40;;;13.60;55.30;;;;;;5097332;28;20043;-78
2021/05/20 02:32:57;;;;;;;1.13;1.10;;;13.60;55.30;;;;;;5115530;28;20024;-78
2021/05/20 02:35:23;;;;;;;2.28;1.40;;;13.60;55.40;;;;;;5097322;28;20410;-78
2021/05/20 02:37:49;;;;;;;3.90;1.30;;;13.50;55.20;;;;;;5115437;28;20195;-78
2021/05/20 02:40:17;;;;;;;1.58;1.40;;;13.50;55.20;;;;;;5115054;28;20138;-78
2021/05/20 02:42:44;;;;;;;2.88;1.23;;;13.50;55.30;;;;;;5115392;28;20027;-78
2021/05/20 02:45:18;;;;;;;2.40;1.40;;;13.50;55.30;;;;;;5115065;28;20039;-78
2021/05/20 02:47:45;;;;;;;2.00;1.23;;;13.50;55.30;;;;;;5102506;28;20457;-78
2021/05/20 02:50:12;;;;;;;1.35;1.25;;;13.50;55.30;;;;;;5059395;28;20020;-78
2021/05/20 02:52:38;;;;;;;2.35;1.38;;;13.50;55.40;;;;;;5059542;28;20027;-78
2021/05/20 02:55:07;;;;;;;1.42;1.30;;;13.50;55.40;;;;;;5094866;28;20031;-78
2021/05/20 02:57:34;;;;;;;4.30;1.83;;;13.40;55.20;;;;;;5094289;28;20035;-78
2021/05/20 03:00:00;;;;;;;1.42;1.15;;;13.40;55.30;;;;;;5059488;28;20487;-77
2021/05/20 03:02:26;;;;;;;2.88;1.42;;;13.40;55.30;;;;;;5060054;28;20089;-78
2021/05/20 03:04:52;;;;;;;2.78;1.60;;;13.40;55.30;;;;;;5094748;28;20036;-78
2021/05/20 03:07:18;;;;;;;1.33;1.20;;;13.40;55.40;;;;;;5093966;28;20125;-78
2021/05/20 03:12:40;;;;;;;2.90;1.50;;;13.40;55.50;;;;;;5186140;23;20833;-78
2021/05/20 03:15:06;;;;;;;2.53;1.77;;;13.40;55.30;;;;;;4938651;29;20039;-78
2021/05/20 03:17:35;;;;;;;3.72;1.55;;;13.40;55.40;;;;;;4923106;29;20062;-78
2021/05/20 03:20:03;;;;;;;1.20;1.10;;;13.40;55.40;;;;;;4938076;29;20506;-78
2021/05/20 03:22:29;;;;;;;3.00;1.30;;;13.40;55.40;;;;;;4955453;28;20027;-78
2021/05/20 03:24:55;;;;;;;2.78;1.40;;;13.30;55.30;;;;;;4955637;29;20502;-78
2021/05/20 03:27:21;;;;;;;3.30;1.55;;;13.30;55.30;;;;;;4938372;29;20039;-78
2021/05/20 03:29:47;;;;;;;1.30;1.20;;;13.30;55.30;;;;;;4955778;29;20028;-78
2021/05/20 03:32:13;;;;;;;3.10;1.50;;;13.30;55.30;;;;;;4955931;29;20027;-78
2021/05/20 03:34:39;;;;;;;1.30;1.20;;;13.30;55.40;;;;;;4938291;29;20189;-78
2021/05/20 03:37:05;;;;;;;1.50;1.40;;;13.30;55.50;;;;;;4955135;29;20490;-78
2021/05/20 03:39:31;;;;;;;1.60;1.27;;;13.20;55.30;;;;;;4955390;29;20568;-79
2021/05/20 03:41:57;;;;;;;2.55;1.30;;;13.20;55.30;;;;;;4938727;29;20043;-79
2021/05/20 03:44:23;;;;;;;1.65;1.30;;;13.20;55.30;;;;;;4922456;29;20142;-78
2021/05/20 03:46:49;;;;;;;1.42;1.33;;;13.20;55.40;;;;;;4938422;29;20043;-79
2021/05/20 03:49:16;;;;;;;1.48;1.35;;;13.20;55.40;;;;;;4938140;29;20035;-79
2021/05/20 03:51:42;;;;;;;5.40;1.88;;;13.20;55.50;;;;;;4922088;29;20027;-79
2021/05/20 03:54:08;;;;;;;2.83;1.58;;;13.20;55.40;;;;;;4922088;29;20098;-78
2021/05/20 03:56:34;;;;;;;2.63;1.40;;;13.20;55.50;;;;;;4922157;29;20505;-79
2021/05/20 03:59:01;;;;;;;1.92;1.30;;;13.10;55.30;;;;;;4938031;29;20049;-78
2021/05/20 04:01:27;;;;;;;2.10;1.40;;;13.10;55.30;;;;;;4922398;29;20429;-78
2021/05/20 04:03:53;;;;;;;1.42;1.27;;;13.10;55.40;;;;;;4921834;29;20062;-78
2021/05/20 04:06:19;;;;;;;2.85;1.45;;;13.10;55.40;;;;;;4921513;29;20065;-80
2021/05/20 04:08:45;;;;;;;1.70;1.42;;;13.10;55.40;;;;;;4906430;29;20032;-79
2021/05/20 04:11:11;;;;;;;1.75;1.30;;;13.10;55.40;;;;;;4921464;29;20035;-77
2021/05/20 04:13:39;;;;;;;1.95;1.30;;;13.10;55.40;;;;;;4937451;29;20035;-77
2021/05/20 04:16:07;;;;;;;1.75;1.30;;;13.10;55.50;;;;;;4954721;28;20035;-77
2021/05/20 04:18:34;;;;;;;1.67;1.42;;;13.10;55.50;;;;;;4954626;29;20062;-78
2021/05/20 04:21:01;;;;;;;1.98;1.20;;;13.10;55.40;;;;;;4954720;29;20058;-78
2021/05/20 04:23:28;;;;;;;2.50;1.55;;;13.10;55.40;;;;;;4954752;29;20367;-78
2021/05/20 04:25:54;;;;;;;1.50;1.27;;;13.10;55.40;;;;;;4954520;28;20039;-78
2021/05/20 04:28:20;;;;;;;1.45;1.35;;;13.10;55.50;;;;;;4954491;29;20035;-77
2021/05/20 04:30:47;;;;;;;2.15;1.20;;;13.10;55.50;;;;;;4954193;28;20031;-78
2021/05/20 04:33:13;;;;;;;3.75;2.00;;;13.10;55.50;;;;;;4953736;28;20119;-79
2021/05/20 04:35:40;;;;;;;3.72;1.75;;;13.00;55.30;;;;;;4954300;28;20094;-79
2021/05/20 04:38:07;;;;;;;2.45;1.30;;;13.00;55.30;;;;;;4937147;29;20032;-79
2021/05/20 04:40:37;;;;;;;1.85;1.45;;;13.00;55.40;;;;;;4954138;28;20050;-78
2021/05/20 04:43:03;;;;;;;2.42;1.40;;;13.00;55.40;;;;;;4937202;29;20086;-78
2021/05/20 04:45:29;;;;;;;2.53;1.70;;;13.00;55.40;;;;;;4954151;28;20124;-78
2021/05/20 04:47:55;;;;;;;1.70;1.48;;;13.00;55.40;;;;;;4945777;28;20299;-78
2021/05/20 04:50:22;;;;;;;2.70;1.50;;;13.00;55.40;;;;;;4932105;29;20467;-78
2021/05/20 04:52:48;;;;;;;3.17;1.80;;;13.10;55.60;;;;;;4931908;29;20075;-78
2021/05/20 04:55:15;;;;;;;5.15;1.83;;;13.00;55.40;;;;;;4932215;29;20040;-77
2021/05/20 04:57:42;;;;;;;3.15;1.75;;;13.00;55.40;;;;;;4935087;28;20122;-77
2021/05/20 05:00:11;;;;;;;2.10;1.50;;;13.10;55.60;;;;;;4950726;29;20035;-77
2021/05/20 05:02:37;;;;;;;3.33;2.00;;;13.10;55.60;;;;;;4947592;28;20530;-77
2021/05/20 05:05:05;;;;;;;4.93;1.65;;;13.10;55.60;;;;;;4914090;29;20053;-78
2021/05/20 05:07:31;;;;;;;1.90;1.50;;;13.10;55.60;;;;;;4931954;28;20047;-77
2021/05/20 05:09:57;;;;;;;3.13;2.00;;;13.10;55.60;;;;;;4949709;29;20031;-77
2021/05/20 05:12:23;;;;;;;3.35;1.90;;;13.10;55.60;;;;;;4932200;29;20317;-77
2021/05/20 05:14:49;;;;;;;2.75;1.90;;;13.10;55.60;;;;;;4950485;29;20038;-77
2021/05/20 05:17:16;;;;;;;2.38;1.67;;;13.10;55.60;;;;;;4949758;28;20041;-77
2021/05/20 05:19:42;;;;;;;1.55;1.45;;;13.20;55.80;;;;;;4949600;28;20442;-78
2021/05/20 05:22:08;;;;;;;5.22;2.00;;;13.10;55.60;;;;;;4949442;28;20027;-77
2021/05/20 05:24:34;;;;;;;2.45;1.67;;;13.20;55.70;;;;;;4949303;29;20042;-77
2021/05/20 05:27:00;;;;;;;5.25;1.63;;;13.20;55.70;;;;;;4931573;29;20482;-78
2021/05/20 05:29:27;;;;;;;5.43;1.88;;;13.20;55.70;;;;;;4949053;28;20429;-78
2021/05/20 05:31:53;;;;;;;3.63;1.98;;;13.20;56.30;;;;;;4916287;28;20089;-82
2021/05/20 05:34:19;;;;;;;3.75;1.88;;;13.20;55.60;;;;;;4897359;29;20170;-80
2021/05/20 05:36:46;;;;;;;2.55;2.10;;;13.20;55.60;;;;;;4929997;29;20134;-77
2021/05/20 05:39:12;;;;;;;3.22;1.60;;;13.30;55.80;;;;;;4926931;29;20557;-79
2021/05/20 05:41:39;;;;;;;1.83;1.65;;;13.30;55.80;;;;;;4949352;29;20384;-78
2021/05/20 05:44:05;;;;;;;4.20;2.00;;;13.30;55.80;;;;;;4948804;28;20037;-78
2021/05/20 05:46:31;;;;;;;2.25;2.03;;;13.30;55.70;;;;;;4932062;29;20039;-79
2021/05/20 05:49:09;;;;;;;3.47;2.22;;;13.30;55.70;;;;;;4932307;29;20035;-83
2021/05/20 05:51:36;;;;;;;1.90;1.60;;;13.30;55.70;;;;;;4931794;29;20398;-77
2021/05/20 05:54:03;;;;;;;7.78;2.47;;;13.30;55.70;;;;;;4949399;28;20028;-81
2021/05/20 05:56:29;;;;;;;4.18;1.88;;;13.40;55.80;;;;;;4932711;29;20793;-82
2021/05/20 05:58:55;;;;;;;7.75;3.05;;;13.40;55.80;;;;;;4915677;28;20228;-81
2021/05/20 06:01:22;;;;;;;6.78;3.00;;;13.50;56.20;;;;;;4932660;29;20047;-78
2021/05/20 06:03:48;;;;;;;8.05;3.13;;;13.50;56.80;;;;;;4916330;29;20548;-80
2021/05/20 06:06:14;;;;;;;4.78;2.58;;;13.60;57.60;;;;;;4948941;28;20054;-80
2021/05/20 06:08:40;;;;;;;10.85;2.80;;;13.60;58.00;;;;;;4931616;29;20043;-81
2021/05/20 06:11:06;;;;;;;11.55;3.65;;;13.70;58.60;;;;;;4949241;28;20036;-80
2021/05/20 06:13:32;;;;;;;9.35;3.30;;;13.80;59.10;;;;;;4948735;28;20039;-80
2021/05/20 06:15:59;;;;;;;7.18;3.63;;;13.90;59.80;;;;;;4949596;29;20639;-79
2021/05/20 06:18:25;;;;;;;9.43;3.05;;;13.90;60.20;;;;;;4915990;29;20027;-79
2021/05/20 06:20:51;;;;;;;6.65;2.90;;;14.00;60.60;;;;;;4932059;29;20039;-81
2021/05/20 06:23:17;;;;;;;7.03;2.92;;;14.10;61.00;;;;;;4948756;28;20032;-79
2021/05/20 06:25:45;;;;;;;7.15;2.88;;;14.10;61.30;;;;;;4931619;28;20039;-78
2021/05/20 06:28:11;;;;;;;8.48;3.30;;;14.20;61.70;;;;;;4931355;29;20031;-79
2021/05/20 06:30:37;;;;;;;6.10;3.22;;;14.20;61.90;;;;;;4931357;29;20086;-80
2021/05/20 06:33:03;;;;;;;13.68;3.92;;;14.30;62.30;;;;;;4916089;29;20023;-80
2021/05/20 06:35:30;;;;;;;7.50;3.45;;;14.30;62.50;;;;;;4916036;29;20510;-81
2021/05/20 06:37:58;;;;;;;7.05;3.13;;;14.40;62.90;;;;;;4896625;29;20132;-79
2021/05/20 06:40:25;;;;;;;11.05;2.70;;;14.40;63.00;;;;;;4929448;29;20530;-79
2021/05/20 06:42:51;;;;;;;5.55;2.95;;;14.50;63.30;;;;;;4919780;29;20505;-79
2021/05/20 06:45:17;;;;;;;6.45;3.15;;;14.50;63.50;;;;;;4931362;29;20524;-78
2021/05/20 06:47:43;;;;;;;5.43;2.75;;;14.50;63.50;;;;;;4934489;28;20058;-78
2021/05/20 06:50:10;;;;;;;5.38;2.45;;;14.60;63.80;;;;;;4950881;28;20041;-78
2021/05/20 06:52:36;;;;;;;7.43;3.08;;;14.70;64.10;;;;;;4940731;28;20039;-78
2021/05/20 06:55:03;;;;;;;7.57;2.80;;;14.70;64.20;;;;;;4913611;29;20047;-78
2021/05/20 06:59:56;;;;;;;7.25;3.08;;;14.70;64.30;;;;;;4933980;28;20491;-79
2021/05/20 07:00:16;;;;;;;6.13;2.85;;;14.80;64.50;;;;;;4952413;29;20054;-78
2021/05/20 07:02:43;;;;;;;6.15;2.67;;;14.80;64.60;;;;;;4952265;28;20031;-78
2021/05/20 07:05:09;;;;;;;8.80;3.35;;;14.90;64.70;;;;;;4952135;29;20209;-78
2021/05/20 07:07:38;;;;;;;10.02;2.83;;;14.90;64.70;;;;;;4952088;28;20035;-78
2021/05/20 07:10:06;;;;;;;4.25;2.40;;;15.00;65.00;;;;;;4951921;28;20113;-78
2021/05/20 07:12:32;;;;;;;7.57;2.92;;;15.00;65.00;;;;;;4934712;29;20047;-77
2021/05/20 07:14:58;;;;;;;5.55;2.53;;;15.10;65.10;;;;;;4951195;28;20486;-81
2021/05/20 07:17:24;;;;;;;6.38;2.75;;;15.10;65.00;;;;;;4952321;28;20027;-80
2021/05/20 07:19:50;;;;;;;6.30;2.65;;;15.10;65.00;;;;;;4918982;29;20125;-80
2021/05/20 07:22:16;;;;;;;4.68;2.30;;;15.10;65.00;;;;;;4934664;28;20126;-79
2021/05/20 07:24:44;;;;;;;5.03;2.45;;;15.20;65.10;;;;;;4918881;29;20390;-80
2021/05/20 07:27:10;;;;;;;6.75;2.78;;;15.20;65.10;;;;;;4918383;29;20046;-80
2021/05/20 07:29:37;;;;;;;7.75;2.90;;;15.20;65.10;;;;;;4934467;29;20118;-80
2021/05/20 07:32:04;;;;;;;5.40;2.60;;;15.20;65.10;;;;;;4951501;28;20126;-80
2021/05/20 07:34:32;;;;;;;6.15;3.35;;;15.20;65.10;;;;;;4918641;29;20293;-80
2021/05/20 07:36:59;;;;;;;6.20;2.78;;;15.20;65.00;;;;;;4934256;29;20038;-80
2021/05/20 07:39:25;;;;;;;7.10;2.90;;;15.20;65.00;;;;;;4918275;29;20031;-80
2021/05/20 07:41:51;;;;;;;5.65;2.65;;;15.20;65.00;;;;;;4934663;29;20043;-80
2021/05/20 07:44:17;;;;;;;7.45;2.80;;;15.30;65.30;;;;;;4918447;29;20058;-81
2021/05/20 07:46:43;;;;;;;4.22;2.40;;;15.30;65.30;;;;;;4918241;29;20050;-79
2021/05/20 07:49:09;;;;;;;5.70;2.75;;;15.30;65.30;;;;;;4918363;29;20039;-77
2021/05/20 07:51:36;;;;;;;23.08;3.33;;;15.40;65.50;;;;;;4934509;29;20613;-78
2021/05/20 07:54:03;;;;;;;8.25;3.30;;;15.50;65.70;;;;;;4918124;29;20070;-79
2021/05/20 07:56:29;;;;;;;7.57;2.58;;;15.50;65.50;;;;;;4915642;29;20054;-78
2021/05/20 07:58:55;;;;;;;6.53;2.55;;;15.60;65.60;;;;;;4900339;29;20070;-79
2021/05/20 08:01:21;;;;;;;6.97;2.50;;;15.70;65.60;;;;;;4915268;29;20479;-80
2021/05/20 08:03:54;;;;;;;6.38;2.90;;;15.80;65.80;;;;;;4914736;29;20123;-80
2021/05/20 08:06:29;;;;;;;7.45;2.38;;;15.80;65.80;;;;;;4914345;29;20050;-78
2021/05/20 08:11:40;;;;;;;4.90;2.67;;;16.00;66.00;;;;;;4914972;29;20048;-80
2021/05/20 08:14:06;;;;;;;4.40;1.98;;;16.10;66.00;;;;;;4916884;29;20534;-80
2021/05/20 08:16:32;;;;;;;6.93;2.45;;;16.20;66.00;;;;;;4933173;29;20062;-81
2021/05/20 08:18:59;;;;;;;4.13;2.03;;;16.30;66.00;;;;;;4948967;29;20155;-78
2021/05/20 08:21:26;;;;;;;8.98;2.38;;;16.40;66.10;;;;;;4950937;29;20039;-79
2021/05/20 08:23:52;;;;;;;8.23;2.55;;;16.50;66.10;;;;;;4949591;29;20270;-80
2021/05/20 08:26:19;;;;;;;11.10;2.78;;;16.50;65.90;;;;;;4933331;29;20138;-81
2021/05/20 08:28:45;;;;;;;6.38;2.55;;;16.70;66.00;;;;;;4917403;29;20039;-80
2021/05/20 08:31:11;;;;;;;3.33;1.63;;;16.80;65.90;;;;;;4933548;29;20135;-82
2021/05/20 08:33:37;;;;;;;5.75;2.65;;;17.00;65.80;;;;;;4917491;29;20031;-82
2021/05/20 08:36:04;;;;;;;6.30;2.38;;;17.10;65.60;;;;;;4917029;29;20126;-83
2021/05/20 08:38:31;;;;;;;4.82;1.85;;;17.20;65.40;;;;;;4916916;29;20034;-82
2021/05/20 08:41:07;;;;;;;5.20;2.30;;;17.30;65.10;;;;;;4933432;29;20559;-86
2021/05/20 08:43:34;;;;;;;4.05;1.95;;;17.40;65.00;;;;;;4918017;29;20131;-82
2021/05/20 08:46:02;;;;;;;3.35;1.80;;;17.40;64.90;;;;;;4908780;28;20138;-83
2021/05/20 08:48:28;;;;;;;5.72;2.15;;;17.40;64.90;;;;;;4915730;29;20039;-82
2021/05/20 08:50:54;;;;;;;4.60;2.22;;;17.40;64.60;;;;;;4917571;29;20035;-83
2021/05/20 08:53:20;;;;;;;5.93;2.33;;;17.40;64.50;;;;;;4900971;29;20106;-82
2021/05/20 08:55:47;;;;;;;7.32;2.38;;;17.50;64.60;;;;;;4916870;28;20039;-82
2021/05/20 08:58:13;;;;;;;5.38;2.00;;;17.40;64.30;;;;;;4916641;29;20031;-82
2021/05/20 09:00:40;;;;;;;5.32;2.30;;;17.40;64.30;;;;;;4917112;29;20597;-83
2021/05/20 09:03:12;;;;;;;4.68;2.40;;;17.40;64.20;;;;;;4917425;29;20035;-82
2021/05/20 09:05:39;;;;;;;4.07;1.80;;;17.40;64.20;;;;;;4917423;29;20324;-82
2021/05/20 09:08:14;;;;;;;6.13;2.35;;;17.40;64.10;;;;;;4915738;29;20039;-83
2021/05/20 09:10:42;;;;;;;5.53;2.20;;;17.40;64.00;;;;;;4917284;29;20089;-82
2021/05/20 09:13:16;;;;;;;3.53;1.80;;;17.50;64.00;;;;;;4912820;29;20455;-82
2021/05/20 09:15:46;;;;;;;;;;;17.50;64.40;;;;;;4898456;29;20024;-83
2021/05/20 09:18:15;;;;;;;6.55;2.50;;;17.60;63.90;;;;;;4912747;29;19969;-82
2021/05/20 09:20:49;;;;;;;6.07;2.20;;;17.60;63.60;;;;;;4897803;29;20388;-81
2021/05/20 09:23:18;;;;;;;4.03;1.88;;;17.60;63.40;;;;;;4906970;29;20062;-82
2021/05/20 09:25:46;;;;;;;3.40;1.65;;;17.70;63.50;;;;;;4916480;29;20047;-80
2021/05/20 09:28:14;;;;;;;2.95;1.77;;;17.70;63.40;;;;;;4931937;29;20027;-81
2021/05/20 09:30:41;;;;;;;2.80;1.73;;;17.80;63.40;;;;;;4916713;29;20039;-82
2021/05/20 09:33:33;;;;;;;4.05;2.28;;;17.90;63.40;;;;;;4913395;29;20059;-86
2021/05/20 09:36:24;;;;;;;4.25;1.67;;;17.90;63.30;;;;;;4914132;29;20032;-81
2021/05/20 09:39:11;;;;;;;3.13;1.50;;;18.00;63.10;;;;;;4912925;29;20043;-80
2021/05/20 09:41:38;;;;;;;4.30;2.13;;;18.10;63.10;;;;;;4928753;29;20063;-80
2021/05/20 09:44:31;;;;;;;2.50;1.75;;;18.10;62.90;;;;;;4916048;29;20035;-81
2021/05/20 09:46:58;;;;;;;3.33;1.73;;;18.20;62.90;;;;;;4933081;29;20039;-81
2021/05/20 09:49:25;;;;;;;2.20;1.60;;;18.20;62.70;;;;;;4919226;28;20062;-81
2021/05/20 09:52:23;;;;;;;2.85;1.60;;;18.20;63.10;;;;;;4951442;28;20049;-82
2021/05/20 09:54:49;;;;;;;2.08;1.50;;;18.20;62.40;;;;;;4913498;29;20498;-82
2021/05/20 09:57:37;;;;;;;3.08;1.45;;;18.20;62.40;;;;;;4914689;29;20031;-83
2021/05/20 10:00:15;;;;;;;4.07;1.55;;;18.20;62.30;;;;;;4913723;29;20046;-86
2021/05/20 10:02:45;;;;;;;2.70;1.75;;;18.20;62.20;;;;;;4902515;28;20042;-81
2021/05/20 10:05:18;;;;;;;2.97;1.50;;;18.10;62.00;;;;;;4916081;29;20031;-82
2021/05/20 10:07:45;;;;;;;3.92;1.70;;;18.10;61.90;;;;;;4916027;28;20042;-85
2021/05/20 10:10:19;;;;;;;5.63;1.67;;;18.10;61.90;;;;;;4915457;29;20032;-86
2021/05/20 10:13:47;;;;;;;2.38;1.50;;;18.10;61.90;;;;;;4941690;28;20059;-88
2021/05/20 10:16:16;;;;;;;3.95;1.50;;;18.20;61.90;;;;;;4916932;29;20028;-86
2021/05/20 10:18:47;;;;;;;2.63;1.33;;;18.20;61.80;;;;;;4915701;28;20323;-85
2021/05/20 10:21:13;;;;;;;2.90;1.55;;;18.30;61.80;;;;;;4926597;28;20027;-81
2021/05/20 10:23:39;;;;;;;2.60;1.40;;;18.30;61.70;;;;;;4927953;29;20032;-84
2021/05/20 10:26:08;;;;;;;5.00;2.05;;;18.40;61.80;;;;;;4913121;29;20063;-84
2021/05/20 10:28:35;;;;;;;6.25;2.05;;;18.50;61.90;;;;;;4938781;28;20410;-83
2021/05/20 10:31:03;;;;;;;2.88;1.58;;;18.60;62.00;;;;;;4934873;29;20128;-84
2021/05/20 10:33:29;;;;;;;2.03;1.40;;;18.80;62.00;;;;;;4925344;29;20450;-84
2021/05/20 10:35:58;;;;;;;3.60;1.60;;;18.90;61.90;;;;;;4916659;29;20084;-87
2021/05/20 10:38:30;;;;;;;4.07;1.65;;;19.10;61.90;;;;;;4940254;28;20058;-84
2021/05/20 10:41:17;;;;;;;2.28;1.55;;;19.20;61.70;;;;;;4952590;28;20517;-84
2021/05/20 10:44:07;;;;;;;3.58;1.90;;;19.30;61.60;;;;;;4951935;28;20031;-81
2021/05/20 10:47:01;;;;;;;4.78;1.80;;;19.30;61.40;;;;;;4952264;28;20540;-83
2021/05/20 10:49:45;;;;;;;3.28;1.83;;;19.30;61.20;;;;;;4953711;28;20055;-85
2021/05/20 10:52:42;;;;;;;7.85;2.13;;;19.30;61.10;;;;;;4935088;28;20057;-84
2021/05/20 10:55:10;;;;;;;3.53;1.90;;;19.20;61.00;;;;;;4919557;29;20043;-83
2021/05/20 10:57:49;;;;;;;4.65;1.80;;;19.20;61.00;;;;;;4934724;28;20046;-87
2021/05/20 11:00:40;;;;;;;4.18;2.08;;;19.20;61.10;;;;;;4935032;29;20034;-81
2021/05/20 11:03:08;;;;;;;3.28;2.03;;;19.40;61.50;;;;;;4919921;29;20053;-83
2021/05/20 11:05:40;;;;;;;5.40;2.13;;;19.60;61.60;;;;;;4934406;29;20247;-82
2021/05/20 11:08:10;;;;;;;7.50;3.30;;;19.90;61.80;;;;;;4929595;29;20048;-82
2021/05/20 11:10:38;;;;;;;5.15;3.33;;;20.20;61.90;;;;;;4915826;29;20502;-81
2021/05/20 11:13:05;;;;;;;9.00;3.63;;;20.40;61.70;;;;;;4922948;29;20055;-83
2021/05/20 11:15:31;;;;;;;4.22;3.00;;;20.50;61.60;;;;;;4933970;28;20035;-81
2021/05/20 11:18:35;;;;;;;9.00;3.30;;;20.60;61.50;;;;;;4919083;29;20450;-82
2021/05/20 11:21:01;;;;;;;4.95;2.97;;;20.70;61.50;;;;;;4951965;29;20114;-81
2021/05/20 11:23:29;;;;;;;4.82;2.67;;;20.80;61.50;;;;;;4934093;29;20162;-81
2021/05/20 11:26:19;;;;;;;7.30;3.10;;;20.80;61.40;;;;;;4918587;28;20081;-83
2021/05/20 11:28:51;;;;;;;4.75;3.08;;;20.90;61.40;;;;;;4918843;29;20035;-80
2021/05/20 11:31:19;;;;;;;6.13;3.00;;;21.00;61.30;;;;;;4918778;29;20041;-85
2021/05/20 11:33:56;;;;;;;7.80;3.58;;;21.00;61.20;;;;;;4918903;29;20036;-80
2021/05/20 11:36:22;;;;;;;6.07;2.95;;;21.10;61.20;;;;;;4918376;29;20039;-82
2021/05/20 11:38:59;;;;;;;4.43;2.83;;;21.00;60.90;;;;;;4918135;29;20031;-78
2021/05/20 11:41:26;;;;;;;5.30;3.42;;;21.00;60.80;;;;;;4918285;29;20487;-80
2021/05/20 11:44:08;;;;;;;6.50;2.90;;;20.90;60.70;;;;;;4918563;29;20074;-83
2021/05/20 11:46:34;;;;;;;7.57;3.05;;;20.80;60.50;;;;;;4934374;29;20051;-81
2021/05/20 11:49:25;;;;;;;4.90;3.00;;;20.70;60.50;;;;;;4934805;29;20062;-81
2021/05/20 11:52:02;;;;;;;7.65;2.92;;;20.50;60.30;;;;;;4934572;29;20031;-81
2021/05/20 11:54:35;;;;;;;7.15;3.35;;;20.40;60.30;;;;;;4934276;29;20039;-82
2021/05/20 11:57:05;;;;;;;7.10;2.88;;;20.30;60.20;;;;;;4918693;28;20529;-84
2021/05/20 11:59:36;;;;;;;4.63;2.70;;;20.20;60.20;;;;;;4918126;29;20027;-82
2021/05/20 12:02:07;;;;;;;4.30;2.60;;;20.10;60.20;;;;;;4902745;29;20073;-82
2021/05/20 12:04:33;;;;;;;4.03;2.45;;;20.00;60.20;;;;;;4930701;29;20126;-81
2021/05/20 12:07:01;;;;;;;4.47;2.97;;;19.90;60.20;;;;;;4914557;29;20046;-83
2021/05/20 12:09:27;;;;;;;6.65;3.08;;;19.80;60.20;;;;;;4944578;28;20034;-82
2021/05/20 12:11:53;;;;;;;3.67;2.30;;;19.70;60.10;;;;;;4952941;28;20051;-86
2021/05/20 12:14:29;;;;;;;5.95;2.40;;;19.60;60.10;;;;;;4919798;29;20102;-82
2021/05/20 12:17:18;;;;;;;3.42;2.10;;;19.50;60.00;;;;;;4917851;29;20035;-81
2021/05/20 12:19:51;;;;;;;4.68;2.47;;;19.40;60.00;;;;;;4914132;29;20058;-84
2021/05/20 12:22:26;;;;;;;4.97;2.33;;;19.30;60.00;;;;;;4915564;28;20032;-81
2021/05/20 12:24:54;;;;;;;4.68;2.70;;;19.30;60.10;;;;;;4932986;28;20114;-82
2021/05/20 12:27:28;;;;;;;5.07;2.72;;;19.20;60.00;;;;;;4933651;29;20027;-82
2021/05/20 12:29:55;;;;;;;3.20;2.22;;;19.10;59.90;;;;;;4950552;28;20395;-82
2021/05/20 12:32:52;;;;;;;4.53;2.28;;;19.00;59.90;;;;;;4933207;28;20031;-81
2021/05/20 12:35:22;;;;;;;4.97;2.40;;;19.00;60.00;;;;;;4915724;29;20039;-82
2021/05/20 12:37:58;;;;;;;3.28;2.22;;;18.90;59.90;;;;;;4950149;28;20062;-81
2021/05/20 12:40:33;;;;;;;2.40;1.77;;;18.80;59.90;;;;;;4950048;29;20035;-83
2021/05/20 12:43:09;;;;;;;6.68;1.95;;;18.70;59.80;;;;;;4932327;29;20398;-83
2021/05/20 12:45:44;;;;;;;7.20;2.17;;;18.70;60.00;;;;;;4932129;29;20501;-84
2021/05/20 12:48:32;;;;;;;3.47;2.00;;;18.70;60.10;;;;;;4950060;28;20034;-83
2021/05/20 12:51:14;;;;;;;4.00;1.70;;;18.70;60.10;;;;;;4932722;29;20066;-83
2021/05/20 12:54:07;;;;;;;4.65;1.70;;;18.60;60.00;;;;;;4949371;28;20094;-84
2021/05/20 12:56:41;;;;;;;6.15;2.17;;;18.60;60.00;;;;;;4917576;29;20034;-81
2021/05/20 12:59:34;;;;;;;6.28;2.00;;;18.60;60.10;;;;;;4933567;29;20424;-82
2021/05/20 13:02:07;;;;;;;2.13;1.80;;;18.60;60.10;;;;;;4933723;29;20043;-84
2021/05/20 13:04:34;;;;;;;3.80;1.88;;;18.60;60.10;;;;;;4917467;29;20031;-84
2021/05/20 13:07:04;;;;;;;3.80;2.13;;;18.60;60.10;;;;;;4934109;29;20058;-82